createdAt,value
2022-08-17T00:00:05.704Z,7.60
2022-08-17T00:02:59.740Z,7.65
2022-08-17T00:05:29.507Z,11.60
2022-08-17T00:07:56.614Z,13.48
2022-08-17T00:10:23.743Z,13.45
2022-08-17T00:12:51.307Z,13.15
2022-08-17T00:15:21.061Z,12.13
2022-08-17T00:17:51.118Z,12.13
2022-08-17T00:20:20.114Z,13.25
2022-08-17T00:23:22.804Z,14.65
2022-08-17T00:25:50.125Z,12.30
2022-08-17T00:28:17.696Z,12.43
2022-08-17T00:30:52.946Z,12.35
2022-08-17T00:33:27.695Z,11.30
2022-08-17T00:35:56.517Z,11.32
2022-08-17T00:38:25.463Z,14.13
2022-08-17T00:40:59.470Z,12.13
2022-08-17T00:43:34.983Z,11.48
2022-08-17T00:46:07.095Z,13.45
2022-08-17T00:48:34.639Z,11.98
2022-08-17T00:51:16.464Z,12.93
2022-08-17T00:53:47.629Z,13.48
2022-08-17T00:56:18.967Z,15.13
2022-08-17T00:58:46.055Z,13.75
2022-08-17T01:01:21.167Z,12.85
2022-08-17T01:03:51.079Z,12.27
2022-08-17T01:06:18.555Z,13.38
2022-08-17T01:08:45.882Z,10.73
2022-08-17T01:11:12.843Z,14.35
2022-08-17T01:13:42.483Z,13.95
2022-08-17T01:16:23.194Z,13.55
2022-08-17T01:18:54.297Z,13.25
2022-08-17T01:21:47.625Z,14.07
2022-08-17T01:24:15.072Z,13.68
2022-08-17T01:26:45.513Z,13.98
2022-08-17T01:29:13.202Z,11.38
2022-08-17T01:31:45.562Z,15.93
2022-08-17T01:34:14.673Z,13.90
2022-08-17T01:36:45.846Z,13.93
2022-08-17T01:39:23.364Z,14.65
2022-08-17T01:41:53.528Z,14.13
2022-08-17T01:44:21.867Z,15.52
2022-08-17T01:46:49.174Z,14.48
2022-08-17T01:49:16.163Z,12.60
2022-08-17T01:51:43.079Z,14.05
2022-08-17T01:54:14.932Z,15.35
2022-08-17T01:56:47.124Z,14.20
2022-08-17T01:59:15.555Z,14.32
2022-08-17T02:01:43.542Z,12.68
2022-08-17T02:04:11.807Z,13.00
2022-08-17T02:06:45.287Z,13.48
2022-08-17T02:09:23.355Z,14.60
2022-08-17T02:11:54.234Z,13.13
2022-08-17T02:14:21.916Z,13.48
2022-08-17T02:16:48.994Z,14.80
2022-08-17T02:19:17.492Z,13.23
2022-08-17T02:21:49.636Z,13.02
2022-08-17T02:25:00.858Z,12.38
2022-08-17T02:27:08.517Z,14.32
2022-08-17T02:29:35.504Z,13.60
2022-08-17T02:32:02.672Z,14.45
2022-08-17T02:34:30.047Z,13.15
2022-08-17T02:36:57.265Z,12.75
2022-08-17T02:39:24.303Z,13.07
2022-08-17T02:42:01.009Z,13.40
2022-08-17T02:44:39.023Z,13.02
2022-08-17T02:47:08.541Z,13.73
2022-08-17T02:49:35.661Z,13.75
2022-08-17T02:52:05.015Z,11.63
2022-08-17T02:54:39.737Z,13.05
2022-08-17T02:57:07.973Z,12.95
2022-08-17T02:59:34.883Z,14.20
2022-08-17T03:02:04.077Z,14.40
2022-08-17T03:04:34.401Z,15.20
2022-08-17T03:07:03.071Z,16.05
2022-08-17T03:09:30.113Z,13.75
2022-08-17T03:12:06.415Z,14.00
2022-08-17T03:14:34.533Z,15.52
2022-08-17T03:17:02.955Z,16.48
2022-08-17T03:19:30.489Z,15.15
2022-08-17T03:21:59.081Z,14.95
2022-08-17T03:24:28.825Z,18.67
2022-08-17T03:26:56.039Z,16.42
2022-08-17T03:29:22.963Z,16.95
2022-08-17T03:31:50.535Z,18.58
2022-08-17T03:34:17.928Z,18.05
2022-08-17T03:36:45.043Z,21.60
2022-08-17T03:39:12.030Z,21.67
2022-08-17T03:41:39.398Z,17.60
2022-08-17T03:44:06.479Z,21.27
2022-08-17T03:46:52.035Z,21.17
2022-08-17T03:49:37.545Z,20.00
2022-08-17T03:52:23.291Z,19.23
2022-08-17T03:55:08.615Z,18.20
2022-08-17T03:57:36.522Z,18.35
2022-08-17T04:00:04.751Z,16.52
2022-08-17T04:02:38.870Z,17.55
2022-08-17T04:05:06.211Z,15.57
2022-08-17T04:07:33.137Z,18.92
2022-08-17T04:10:00.883Z,21.10
2022-08-17T04:12:30.965Z,18.27
2022-08-17T04:14:58.395Z,19.20
2022-08-17T04:17:28.611Z,18.73
2022-08-17T04:19:56.865Z,17.13
2022-08-17T04:22:33.100Z,18.35
2022-08-17T04:25:25.615Z,17.80
2022-08-17T04:27:52.656Z,18.30
2022-08-17T04:30:19.750Z,16.48
2022-08-17T04:33:04.851Z,16.08
2022-08-17T04:35:45.631Z,18.73
2022-08-17T04:38:19.772Z,18.40
2022-08-17T04:41:06.575Z,18.95
2022-08-17T04:43:34.915Z,17.23
2022-08-17T04:46:04.745Z,17.17
2022-08-17T04:48:37.651Z,15.93
2022-08-17T04:51:11.303Z,17.15
2022-08-17T04:53:40.477Z,16.50
2022-08-17T04:56:08.179Z,17.88
2022-08-17T04:58:51.761Z,18.20
2022-08-17T05:01:23.912Z,18.15
2022-08-17T05:03:57.015Z,17.63
2022-08-17T05:06:24.072Z,16.75
2022-08-17T05:08:51.436Z,16.33
2022-08-17T05:11:18.493Z,17.13
2022-08-17T05:13:45.451Z,17.98
2022-08-17T05:16:12.868Z,18.55
2022-08-17T05:18:39.907Z,16.83
2022-08-17T05:21:07.606Z,16.27
2022-08-17T05:23:42.355Z,16.48
2022-08-17T05:26:26.432Z,16.98
2022-08-17T05:28:57.088Z,15.50
2022-08-17T05:31:25.806Z,14.98
2022-08-17T05:33:53.340Z,16.73
2022-08-17T05:36:41.902Z,16.23
2022-08-17T05:39:07.806Z,16.08
2022-08-17T05:41:34.701Z,16.30
2022-08-17T05:44:05.167Z,15.23
2022-08-17T05:46:40.272Z,15.18
2022-08-17T05:49:08.622Z,17.85
2022-08-17T05:51:38.375Z,20.30
2022-08-17T05:54:23.223Z,17.45
2022-08-17T05:56:56.106Z,17.02
2022-08-17T05:59:50.346Z,17.03
2022-08-17T06:05:15.624Z,24.55
2022-08-17T06:07:52.344Z,25.60
2022-08-17T06:10:44.194Z,23.77
2022-08-17T06:13:25.227Z,24.17
2022-08-17T06:16:04.697Z,22.80
2022-08-17T06:19:02.513Z,24.02
2022-08-17T06:21:39.434Z,20.65
2022-08-17T06:24:18.742Z,19.10
2022-08-17T06:26:46.722Z,17.63
2022-08-17T06:29:23.440Z,19.55
2022-08-17T06:31:51.037Z,17.88
2022-08-17T06:34:19.439Z,18.88
2022-08-17T06:37:23.944Z,16.25
2022-08-17T06:43:02.717Z,14.18
2022-08-17T06:45:29.591Z,15.60
2022-08-17T06:48:15.390Z,15.57
2022-08-17T06:50:59.923Z,14.82
2022-08-17T06:53:32.893Z,16.23
2022-08-17T06:56:06.300Z,16.27
2022-08-17T06:58:35.843Z,14.50
2022-08-17T07:01:19.212Z,15.40
2022-08-17T07:04:12.192Z,13.27
2022-08-17T07:06:52.431Z,14.55
2022-08-17T07:09:26.533Z,13.38
2022-08-17T07:11:59.211Z,12.70
2022-08-17T07:14:38.061Z,12.43
2022-08-17T07:17:13.279Z,12.25
2022-08-17T07:19:45.406Z,11.25
2022-08-17T07:23:11.306Z,12.40
2022-08-17T07:25:38.297Z,11.45
2022-08-17T07:28:07.819Z,11.55
2022-08-17T07:30:37.069Z,10.23
2022-08-17T07:33:20.250Z,10.00
2022-08-17T07:35:49.874Z,10.07
2022-08-17T07:38:25.701Z,10.60
2022-08-17T07:41:06.078Z,10.70
2022-08-17T07:43:37.891Z,9.70
2022-08-17T07:46:34.950Z,10.15
2022-08-17T07:49:07.602Z,10.07
2022-08-17T07:51:40.792Z,10.07
2022-08-17T07:54:22.422Z,9.93
2022-08-17T07:56:55.967Z,10.57
2022-08-17T07:59:24.476Z,10.57
2022-08-17T08:01:58.133Z,9.98
2022-08-17T08:04:59.014Z,10.57
2022-08-17T08:07:34.641Z,10.02
2022-08-17T08:10:08.531Z,9.30
2022-08-17T08:15:33.340Z,8.23
2022-08-17T08:18:03.854Z,8.30
2022-08-17T08:20:57.675Z,7.65
2022-08-17T08:23:37.436Z,7.88
2022-08-17T08:26:29.010Z,8.52
2022-08-17T08:29:08.341Z,7.97
2022-08-17T08:32:12.904Z,8.30
2022-08-17T08:38:02.457Z,9.48
2022-08-17T08:40:47.074Z,9.32
2022-08-17T08:43:36.183Z,10.38
2022-08-17T08:46:14.985Z,9.73
2022-08-17T08:49:14.396Z,11.55
2022-08-17T08:51:59.345Z,10.70
2022-08-17T08:54:35.976Z,10.80
2022-08-17T08:57:26.979Z,10.90
2022-08-17T09:00:15.818Z,10.37
2022-08-17T09:03:17.045Z,10.35
2022-08-17T09:06:33.306Z,10.88
2022-08-17T09:09:35.538Z,10.38
2022-08-17T09:12:08.942Z,8.55
2022-08-17T09:14:47.293Z,7.82
2022-08-17T09:17:19.343Z,7.60
2022-08-17T09:19:58.225Z,7.43
2022-08-17T09:22:42.679Z,8.13
2022-08-17T09:25:15.317Z,7.38
2022-08-17T09:27:54.659Z,7.32
2022-08-17T09:30:23.763Z,7.57
2022-08-17T09:32:57.268Z,7.50
2022-08-17T09:35:36.865Z,7.70
2022-08-17T09:38:21.289Z,7.88
2022-08-17T09:43:43.844Z,6.32
2022-08-17T09:46:23.238Z,6.45
2022-08-17T09:48:57.712Z,6.95
2022-08-17T09:51:36.178Z,6.07
2022-08-17T09:54:37.124Z,6.45
2022-08-17T09:57:27.871Z,6.68
2022-08-17T10:00:17.283Z,6.55
2022-08-17T10:02:54.456Z,5.88
2022-08-17T10:05:49.211Z,5.95
2022-08-17T10:08:42.254Z,6.13
2022-08-17T10:11:19.015Z,6.55
2022-08-17T10:14:36.671Z,6.82
2022-08-17T10:17:25.100Z,7.07
2022-08-17T10:20:00.374Z,7.35
2022-08-17T10:22:56.716Z,6.45
2022-08-17T10:25:54.678Z,5.63
2022-08-17T10:28:30.495Z,6.82
2022-08-17T10:31:31.034Z,5.95
2022-08-17T10:34:26.155Z,6.78
2022-08-17T10:39:36.095Z,7.65
2022-08-17T10:42:30.473Z,6.85
2022-08-17T10:45:20.932Z,5.88
2022-08-17T10:48:06.085Z,7.05
2022-08-17T10:50:43.172Z,7.30
2022-08-17T10:53:10.752Z,7.10
2022-08-17T10:55:39.136Z,7.15
2022-08-17T10:58:38.307Z,6.30
2022-08-17T11:01:08.187Z,6.50
2022-08-17T11:03:35.296Z,6.07
2022-08-17T11:06:14.323Z,5.57
2022-08-17T11:09:19.967Z,5.80
2022-08-17T11:12:20.908Z,6.13
2022-08-17T11:15:03.709Z,6.68
2022-08-17T11:17:58.241Z,6.30
2022-08-17T11:20:52.617Z,6.50
2022-08-17T11:23:43.558Z,6.70
2022-08-17T11:26:29.735Z,6.95
2022-08-17T11:29:10.299Z,6.25
2022-08-17T11:31:41.834Z,6.45
2022-08-17T11:34:26.359Z,6.95
2022-08-17T11:37:28.695Z,7.10
2022-08-17T11:40:10.037Z,6.82
2022-08-17T11:42:59.748Z,6.32
2022-08-17T11:45:41.788Z,6.45
2022-08-17T11:48:49.469Z,5.25
2022-08-17T11:51:34.387Z,5.45
2022-08-17T11:54:36.216Z,4.68
2022-08-17T11:57:29.330Z,4.53
2022-08-17T12:00:06.991Z,4.82
2022-08-17T12:02:48.524Z,4.57
2022-08-17T12:05:19.061Z,4.82
2022-08-17T12:07:54.417Z,4.68
2022-08-17T12:10:31.894Z,4.35
2022-08-17T12:13:04.792Z,4.50
2022-08-17T12:15:37.433Z,4.78
2022-08-17T12:18:04.978Z,4.70
2022-08-17T12:20:38.324Z,4.80
2022-08-17T12:23:40.866Z,4.78
2022-08-17T12:26:19.865Z,6.03
2022-08-17T12:28:57.411Z,5.70
2022-08-17T12:31:34.636Z,5.97
2022-08-17T12:34:04.408Z,6.03
2022-08-17T12:36:32.840Z,5.57
2022-08-17T12:39:13.048Z,6.80
2022-08-17T12:41:48.234Z,5.43
2022-08-17T12:44:27.256Z,5.78
2022-08-17T12:46:57.464Z,6.18
2022-08-17T12:49:43.755Z,6.28
2022-08-17T12:52:13.509Z,6.13
2022-08-17T12:55:00.370Z,5.07
2022-08-17T12:57:44.573Z,5.40
2022-08-17T13:00:29.521Z,5.70
2022-08-17T13:03:05.983Z,4.80
2022-08-17T13:05:36.807Z,6.20
2022-08-17T13:08:16.664Z,5.30
2022-08-17T13:10:53.564Z,5.82
2022-08-17T13:13:26.314Z,5.70
2022-08-17T13:16:24.392Z,5.20
2022-08-17T13:19:15.449Z,7.20
2022-08-17T13:22:00.828Z,5.75
2022-08-17T13:24:30.801Z,5.50
2022-08-17T13:27:08.608Z,5.57
2022-08-17T13:29:40.324Z,5.40
2022-08-17T13:32:13.605Z,4.90
2022-08-17T13:37:34.638Z,4.93
2022-08-17T13:40:10.909Z,4.50
2022-08-17T13:42:50.226Z,4.95
2022-08-17T13:45:36.003Z,4.70
2022-08-17T13:48:13.816Z,5.15
2022-08-17T13:50:46.502Z,4.07
2022-08-17T13:53:18.170Z,3.80
2022-08-17T13:55:52.319Z,3.58
2022-08-17T13:58:22.551Z,2.80
2022-08-17T14:00:51.622Z,3.40
2022-08-17T14:03:19.819Z,3.05
2022-08-17T14:05:48.300Z,4.00
2022-08-17T14:08:17.034Z,3.08
2022-08-17T14:10:45.544Z,3.00
2022-08-17T14:13:15.725Z,2.80
2022-08-17T14:15:55.039Z,2.60
2022-08-17T14:18:35.736Z,2.60
2022-08-17T14:21:10.663Z,2.65
2022-08-17T14:23:38.464Z,2.40
2022-08-17T14:26:05.647Z,2.50
2022-08-17T14:28:32.718Z,2.33
2022-08-17T14:31:01.146Z,2.20
2022-08-17T14:33:29.215Z,2.22
2022-08-17T14:35:57.630Z,2.15
2022-08-17T14:38:24.818Z,2.20
2022-08-17T14:40:52.173Z,2.15
2022-08-17T14:43:21.011Z,2.33
2022-08-17T14:45:48.072Z,2.40
2022-08-17T14:48:15.654Z,2.45
2022-08-17T14:50:43.583Z,2.22
2022-08-17T14:53:13.238Z,2.20
2022-08-17T14:55:45.096Z,1.92
2022-08-17T14:58:15.064Z,2.50
2022-08-17T15:00:43.685Z,2.22
2022-08-17T15:03:11.792Z,2.42
2022-08-17T15:05:39.816Z,2.53
2022-08-17T15:08:08.122Z,2.10
2022-08-17T15:10:35.635Z,2.17
2022-08-17T15:13:03.096Z,2.50
2022-08-17T15:15:30.535Z,2.42
2022-08-17T15:17:59.923Z,2.45
2022-08-17T15:20:29.791Z,2.55
2022-08-17T15:22:58.988Z,2.25
2022-08-17T15:25:28.259Z,2.35
2022-08-17T15:27:55.920Z,2.35
2022-08-17T15:30:24.439Z,2.63
2022-08-17T15:32:55.000Z,2.50
2022-08-17T15:35:29.178Z,2.90
2022-08-17T15:38:07.824Z,3.00
2022-08-17T15:40:44.543Z,3.10
2022-08-17T15:43:15.065Z,3.35
2022-08-17T15:45:43.040Z,2.75
2022-08-17T15:48:10.720Z,2.90
2022-08-17T15:50:37.999Z,2.50
2022-08-17T15:53:05.082Z,2.80
2022-08-17T15:55:33.061Z,2.83
2022-08-17T15:58:00.614Z,3.20
2022-08-17T16:00:29.289Z,3.15
2022-08-17T16:03:47.108Z,3.22
2022-08-17T16:05:47.368Z,3.13
2022-08-17T16:08:20.207Z,3.28
2022-08-17T16:10:48.692Z,3.17
2022-08-17T16:13:17.925Z,3.72
2022-08-17T16:15:51.096Z,3.50
2022-08-17T16:18:29.394Z,3.20
2022-08-17T16:20:56.819Z,3.13
2022-08-17T16:23:23.962Z,3.17
2022-08-17T16:25:53.726Z,3.10
2022-08-17T16:28:23.415Z,3.80
2022-08-17T16:31:03.537Z,3.00
2022-08-17T16:33:30.456Z,2.63
2022-08-17T16:35:57.448Z,3.15
2022-08-17T16:38:24.463Z,2.88
2022-08-17T16:40:51.398Z,3.60
2022-08-17T16:43:18.380Z,3.50
2022-08-17T16:45:51.856Z,4.20
2022-08-17T16:48:19.785Z,4.20
2022-08-17T16:51:04.141Z,4.65
2022-08-17T16:53:32.004Z,4.13
2022-08-17T16:55:58.968Z,4.10
2022-08-17T16:58:25.988Z,3.63
2022-08-17T17:00:54.386Z,4.05
2022-08-17T17:03:25.159Z,3.28
2022-08-17T17:06:13.628Z,2.42
2022-08-17T17:08:48.521Z,3.55
2022-08-17T17:11:41.259Z,2.10
2022-08-17T17:14:37.720Z,2.50
2022-08-17T17:17:28.436Z,2.47
2022-08-17T17:20:22.829Z,2.83
2022-08-17T17:23:27.530Z,2.90
2022-08-17T17:26:03.658Z,3.10
2022-08-17T17:28:36.187Z,3.13
2022-08-17T17:31:18.108Z,2.80
2022-08-17T17:33:48.884Z,3.35
2022-08-17T17:36:34.640Z,3.17
2022-08-17T17:39:43.889Z,2.70
2022-08-17T17:42:14.549Z,3.42
2022-08-17T17:45:07.115Z,3.45
2022-08-17T17:47:34.640Z,2.90
2022-08-17T17:50:05.013Z,3.25
2022-08-17T17:53:15.360Z,3.38
2022-08-17T17:56:06.425Z,3.20
2022-08-17T18:01:37.583Z,3.60
2022-08-17T18:04:16.982Z,3.50
2022-08-17T18:07:15.226Z,3.53
2022-08-17T18:10:19.497Z,2.97
2022-08-17T18:13:10.439Z,3.45
2022-08-17T18:15:51.400Z,3.13
2022-08-17T18:18:18.415Z,3.00
2022-08-17T18:20:53.952Z,2.78
2022-08-17T18:23:27.996Z,3.10
2022-08-17T18:25:57.084Z,3.20
2022-08-17T18:28:32.147Z,3.20
2022-08-17T18:31:20.107Z,3.00
2022-08-17T18:33:50.883Z,3.55
2022-08-17T18:36:33.432Z,3.40
2022-08-17T18:39:27.652Z,3.30
2022-08-17T18:41:59.971Z,3.22
2022-08-17T18:44:43.860Z,3.17
2022-08-17T18:49:57.465Z,3.45
2022-08-17T18:52:32.564Z,3.60
2022-08-17T18:55:20.336Z,3.85
2022-08-17T18:57:48.453Z,3.78
2022-08-17T19:00:23.331Z,3.60
2022-08-17T19:02:59.754Z,4.63
2022-08-17T19:05:40.596Z,3.90
2022-08-17T19:08:28.479Z,3.95
2022-08-17T19:11:03.818Z,3.65
2022-08-17T19:13:43.532Z,4.00
2022-08-17T19:16:16.031Z,3.53
2022-08-17T19:18:55.679Z,3.47
2022-08-17T19:21:41.843Z,3.78
2022-08-17T19:24:19.793Z,3.88
2022-08-17T19:26:56.560Z,3.80
2022-08-17T19:29:37.067Z,3.70
2022-08-17T19:32:06.572Z,3.75
2022-08-17T19:34:36.267Z,3.58
2022-08-17T19:37:08.946Z,3.45
2022-08-17T19:39:43.646Z,3.42
2022-08-17T19:42:41.300Z,3.72
2022-08-17T19:45:16.052Z,4.07
2022-08-17T19:48:07.184Z,3.75
2022-08-17T19:50:55.932Z,3.67
2022-08-17T19:53:47.815Z,4.05
2022-08-17T19:56:43.624Z,3.50
2022-08-17T19:59:18.344Z,3.72
2022-08-17T20:01:49.388Z,4.18
2022-08-17T20:04:31.458Z,3.50
2022-08-17T20:07:11.218Z,3.67
2022-08-17T20:09:42.875Z,4.15
2022-08-17T20:12:16.839Z,4.05
2022-08-17T20:15:00.518Z,4.07
2022-08-17T20:17:43.289Z,4.63
2022-08-17T20:20:40.819Z,4.18
2022-08-17T20:23:28.927Z,4.07
2022-08-17T20:26:18.942Z,3.88
2022-08-17T20:29:04.282Z,4.30
2022-08-17T20:31:56.156Z,4.07
2022-08-17T20:34:30.812Z,4.80
2022-08-17T20:37:15.398Z,4.90
2022-08-17T20:39:44.208Z,5.20
2022-08-17T20:42:20.292Z,5.07
2022-08-17T20:44:57.929Z,4.75
2022-08-17T20:47:30.748Z,5.05
2022-08-17T20:50:05.458Z,5.50
2022-08-17T20:52:57.891Z,6.35
2022-08-17T20:55:40.376Z,6.28
2022-08-17T20:58:29.970Z,6.35
2022-08-17T21:00:58.932Z,6.18
2022-08-17T21:03:50.097Z,7.63
2022-08-17T21:06:18.225Z,6.72
2022-08-17T21:08:54.324Z,6.63
2022-08-17T21:12:02.968Z,6.45
2022-08-17T21:15:10.770Z,6.75
2022-08-17T21:17:48.358Z,7.10
2022-08-17T21:20:39.584Z,6.88
2022-08-17T21:23:21.848Z,6.60
2022-08-17T21:26:30.379Z,6.78
2022-08-17T21:29:32.505Z,7.15
2022-08-17T21:32:05.360Z,7.25
2022-08-17T21:34:43.643Z,7.45
2022-08-17T21:37:23.371Z,8.27
2022-08-17T21:39:55.526Z,7.50
2022-08-17T21:42:28.518Z,8.48
2022-08-17T21:45:00.688Z,8.45
2022-08-17T21:47:30.557Z,7.80
2022-08-17T21:50:20.034Z,8.35
2022-08-17T21:52:48.992Z,8.90
2022-08-17T21:55:22.078Z,8.93
2022-08-17T21:57:53.081Z,8.40
2022-08-17T22:00:36.817Z,8.50
2022-08-17T22:03:06.942Z,9.80
2022-08-17T22:05:37.609Z,10.75
2022-08-17T22:08:20.575Z,9.45
2022-08-17T22:10:51.367Z,9.98
2022-08-17T22:13:18.279Z,12.50
2022-08-17T22:16:28.618Z,11.95
2022-08-17T22:18:58.820Z,11.15
2022-08-17T22:21:26.421Z,12.30
2022-08-17T22:24:06.347Z,13.00
2022-08-17T22:27:11.635Z,12.57
2022-08-17T22:29:59.216Z,12.52
2022-08-17T22:32:34.543Z,14.05
2022-08-17T22:35:25.986Z,14.32
2022-08-17T22:37:53.277Z,13.30
2022-08-17T22:40:33.426Z,15.43
2022-08-17T22:43:03.542Z,14.15
2022-08-17T22:45:31.257Z,15.50
2022-08-17T22:48:01.509Z,16.38
2022-08-17T22:50:30.463Z,15.45
2022-08-17T22:53:20.866Z,14.75
2022-08-17T22:56:13.928Z,14.85
2022-08-17T22:59:17.225Z,17.05
2022-08-17T23:02:05.311Z,16.38
2022-08-17T23:04:36.031Z,16.80
2022-08-17T23:07:03.103Z,15.27
2022-08-17T23:09:30.068Z,15.13
2022-08-17T23:11:58.638Z,18.15
2022-08-17T23:14:31.756Z,17.00
2022-08-17T23:16:59.430Z,17.88
2022-08-17T23:19:27.512Z,18.30
2022-08-17T23:21:56.376Z,18.55
2022-08-17T23:24:28.934Z,19.60
2022-08-17T23:26:58.174Z,20.85
2022-08-17T23:29:26.147Z,19.10
2022-08-17T23:31:53.117Z,18.15
2022-08-17T23:34:20.377Z,19.17
2022-08-17T23:36:52.878Z,20.10
2022-08-17T23:39:27.797Z,23.00
2022-08-17T23:41:59.458Z,22.27
2022-08-17T23:44:28.841Z,18.98
2022-08-17T23:46:56.095Z,22.17
2022-08-17T23:49:25.069Z,21.38
2022-08-17T23:51:55.162Z,23.08
2022-08-17T23:54:46.534Z,25.10
2022-08-17T23:57:16.960Z,24.20
2022-08-17T23:59:44.449Z,25.42
